createdAt,value
2017-06-14T00:00:35.388Z,12.40
2017-06-14T00:03:02.960Z,12.97
2017-06-14T00:05:31.279Z,12.40
2017-06-14T00:07:58.795Z,12.30
2017-06-14T00:10:26.322Z,12.93
2017-06-14T00:12:54.228Z,12.80
2017-06-14T00:15:21.756Z,12.10
2017-06-14T00:17:49.294Z,12.40
2017-06-14T00:20:16.850Z,13.80
2017-06-14T00:22:44.409Z,12.80
2017-06-14T00:25:11.920Z,13.50
2017-06-14T00:27:39.489Z,12.20
2017-06-14T00:30:07.006Z,11.90
2017-06-14T00:32:34.540Z,12.93
2017-06-14T00:35:02.349Z,12.00
2017-06-14T00:37:30.647Z,13.37
2017-06-14T00:39:58.171Z,13.30
2017-06-14T00:42:25.728Z,12.30
2017-06-14T00:44:53.265Z,13.20
2017-06-14T00:47:20.790Z,12.90
2017-06-14T00:49:48.586Z,13.80
2017-06-14T00:52:16.143Z,14.30
2017-06-14T00:54:43.701Z,14.13
2017-06-14T00:57:11.261Z,14.10
2017-06-14T00:59:38.781Z,16.60
2017-06-14T01:02:06.306Z,14.30
2017-06-14T01:04:33.871Z,14.80
2017-06-14T01:07:01.413Z,15.67
2017-06-14T01:09:28.962Z,14.67
2017-06-14T01:11:56.508Z,14.60
2017-06-14T01:14:24.032Z,13.50
2017-06-14T01:16:51.563Z,14.47
2017-06-14T01:19:19.142Z,15.63
2017-06-14T01:21:46.695Z,14.10
2017-06-14T01:24:14.983Z,13.50
2017-06-14T01:26:42.542Z,13.73
2017-06-14T01:29:10.068Z,14.53
2017-06-14T01:31:37.588Z,14.00
2017-06-14T01:34:05.145Z,14.53
2017-06-14T01:36:32.682Z,14.80
2017-06-14T01:39:00.216Z,14.57
2017-06-14T01:41:27.774Z,13.20
2017-06-14T01:43:55.297Z,14.83
2017-06-14T01:46:24.211Z,14.10
2017-06-14T01:48:51.765Z,13.90
2017-06-14T01:51:19.280Z,13.47
2017-06-14T01:53:46.823Z,14.50
2017-06-14T01:56:14.370Z,14.97
2017-06-14T01:58:42.661Z,15.80
2017-06-14T02:01:10.188Z,14.37
2017-06-14T02:03:38.196Z,15.37
2017-06-14T02:06:05.729Z,13.93
2017-06-14T02:08:33.252Z,14.43
2017-06-14T02:11:00.800Z,14.60
2017-06-14T02:13:28.330Z,15.23
2017-06-14T02:15:55.886Z,14.60
2017-06-14T02:18:23.449Z,16.40
2017-06-14T02:20:50.998Z,14.80
2017-06-14T02:23:18.539Z,15.23
2017-06-14T02:25:46.112Z,14.90
2017-06-14T02:28:14.413Z,16.40
2017-06-14T02:30:41.936Z,14.63
2017-06-14T02:33:09.492Z,14.43
2017-06-14T02:35:37.018Z,16.83
2017-06-14T02:38:04.541Z,14.80
2017-06-14T02:40:32.496Z,13.50
2017-06-14T02:43:00.024Z,15.00
2017-06-14T02:45:27.537Z,15.03
2017-06-14T02:47:55.078Z,14.60
2017-06-14T02:50:22.590Z,15.50
2017-06-14T02:52:50.124Z,14.83
2017-06-14T02:55:17.699Z,14.00
2017-06-14T02:57:45.235Z,14.80
2017-06-14T03:00:12.762Z,15.63
2017-06-14T03:02:40.320Z,15.63
2017-06-14T03:05:07.836Z,15.80
2017-06-14T03:07:35.396Z,14.87
2017-06-14T03:10:02.941Z,15.90
2017-06-14T03:12:30.454Z,15.10
2017-06-14T03:14:58.748Z,15.37
2017-06-14T03:17:26.291Z,15.10
2017-06-14T03:19:53.812Z,15.23
2017-06-14T03:22:21.318Z,15.57
2017-06-14T03:24:49.178Z,15.70
2017-06-14T03:27:16.704Z,16.70
2017-06-14T03:29:44.228Z,17.43
2017-06-14T03:32:12.144Z,17.20
2017-06-14T03:34:39.667Z,15.50
2017-06-14T03:37:07.186Z,16.27
2017-06-14T03:39:35.150Z,16.97
2017-06-14T03:42:02.683Z,15.70
2017-06-14T03:44:30.211Z,16.17
2017-06-14T03:46:58.013Z,14.93
2017-06-14T03:49:25.560Z,14.90
2017-06-14T03:51:53.083Z,13.90
2017-06-14T03:54:20.648Z,13.83
2017-06-14T03:56:48.192Z,16.50
2017-06-14T03:59:15.726Z,15.17
2017-06-14T04:01:43.271Z,17.90
2017-06-14T04:04:11.564Z,17.40
2017-06-14T04:06:39.079Z,16.67
2017-06-14T04:09:06.642Z,15.17
2017-06-14T04:11:34.166Z,16.90
2017-06-14T04:14:01.684Z,16.93
2017-06-14T04:16:29.645Z,16.23
2017-06-14T04:18:57.950Z,15.87
2017-06-14T04:21:25.530Z,15.83
2017-06-14T04:23:53.451Z,15.63
2017-06-14T04:26:21.774Z,17.50
2017-06-14T04:28:49.313Z,13.53
2017-06-14T04:31:17.251Z,13.50
2017-06-14T04:33:45.550Z,15.00
2017-06-14T04:36:13.086Z,16.00
2017-06-14T04:38:40.960Z,14.97
2017-06-14T04:41:08.491Z,15.37
2017-06-14T04:43:36.019Z,15.70
2017-06-14T04:46:03.575Z,16.07
2017-06-14T04:48:31.104Z,16.40
2017-06-14T04:50:59.394Z,16.30
2017-06-14T04:53:26.948Z,15.83
2017-06-14T04:55:54.479Z,14.67
2017-06-14T04:58:22.000Z,13.27
2017-06-14T05:00:49.548Z,12.07
2017-06-14T05:03:17.201Z,14.17
2017-06-14T05:05:44.735Z,13.63
2017-06-14T05:08:12.289Z,13.33
2017-06-14T05:10:39.815Z,13.63
2017-06-14T05:13:07.398Z,11.80
2017-06-14T05:15:34.975Z,12.30
2017-06-14T05:18:02.508Z,12.27
2017-06-14T05:20:30.038Z,11.40
2017-06-14T05:22:57.598Z,10.50
2017-06-14T05:25:25.139Z,10.13
2017-06-14T05:27:52.691Z,9.97
2017-06-14T05:30:20.243Z,11.10
2017-06-14T05:32:47.794Z,11.50
2017-06-14T05:35:15.338Z,9.93
2017-06-14T05:37:42.891Z,10.90
2017-06-14T05:40:11.190Z,10.50
2017-06-14T05:42:38.721Z,9.83
2017-06-14T05:45:06.278Z,9.90
2017-06-14T05:47:33.822Z,9.40
2017-06-14T05:50:01.354Z,9.23
2017-06-14T05:52:28.900Z,10.37
2017-06-14T05:54:56.420Z,9.53
2017-06-14T05:57:23.949Z,9.70
2017-06-14T05:59:51.512Z,9.30
2017-06-14T06:02:19.050Z,11.00
2017-06-14T06:04:46.574Z,11.33
2017-06-14T06:07:14.125Z,8.57
2017-06-14T06:09:41.658Z,8.33
2017-06-14T06:12:09.201Z,10.60
2017-06-14T06:14:36.786Z,9.53
2017-06-14T06:17:04.359Z,10.43
2017-06-14T06:19:31.891Z,9.60
2017-06-14T06:21:59.453Z,9.40
2017-06-14T06:24:26.990Z,9.90
2017-06-14T06:26:54.939Z,9.30
2017-06-14T06:29:22.770Z,8.53
2017-06-14T06:31:51.070Z,9.60
2017-06-14T06:34:18.623Z,9.20
2017-06-14T06:36:46.173Z,9.67
2017-06-14T06:39:13.717Z,10.27
2017-06-14T06:41:41.241Z,9.70
2017-06-14T06:44:09.040Z,8.87
2017-06-14T06:46:36.560Z,9.33
2017-06-14T06:49:04.089Z,10.10
2017-06-14T06:51:31.678Z,8.80
2017-06-14T06:53:59.188Z,8.93
2017-06-14T06:56:27.486Z,9.53
2017-06-14T06:58:55.336Z,8.47
2017-06-14T07:01:23.654Z,9.10
2017-06-14T07:03:51.195Z,8.50
2017-06-14T07:06:19.012Z,10.20
2017-06-14T07:08:46.559Z,8.90
2017-06-14T07:11:14.087Z,9.10
2017-06-14T07:13:41.655Z,9.73
2017-06-14T07:16:09.166Z,9.27
2017-06-14T07:18:37.448Z,8.00
2017-06-14T07:21:06.106Z,7.90
2017-06-14T07:23:33.631Z,7.40
2017-06-14T07:26:01.142Z,7.80
2017-06-14T07:28:29.095Z,8.20
2017-06-14T07:30:56.624Z,7.60
2017-06-14T07:33:24.153Z,8.50
2017-06-14T07:35:52.097Z,6.70
2017-06-14T07:38:19.626Z,8.87
2017-06-14T07:40:47.188Z,9.03
2017-06-14T07:43:14.758Z,8.20
2017-06-14T07:45:42.301Z,8.60
2017-06-14T07:48:09.827Z,8.10
2017-06-14T07:50:37.417Z,7.90
2017-06-14T07:53:04.989Z,8.07
2017-06-14T07:55:32.566Z,8.10
2017-06-14T07:58:00.919Z,7.83
2017-06-14T08:00:28.453Z,7.47
2017-06-14T08:02:55.985Z,7.20
2017-06-14T08:05:23.540Z,8.50
2017-06-14T08:07:51.068Z,7.60
2017-06-14T08:10:18.603Z,7.80
2017-06-14T08:12:46.145Z,7.23
2017-06-14T08:15:13.707Z,8.03
2017-06-14T08:17:41.237Z,7.13
2017-06-14T08:20:09.052Z,7.33
2017-06-14T08:22:36.577Z,7.17
2017-06-14T08:25:04.134Z,6.73
2017-06-14T08:27:31.723Z,7.63
2017-06-14T08:29:59.255Z,7.57
2017-06-14T08:32:26.783Z,6.37
2017-06-14T08:34:54.336Z,6.90
2017-06-14T08:37:22.646Z,7.30
2017-06-14T08:39:50.172Z,7.00
2017-06-14T08:42:17.745Z,6.97
2017-06-14T08:44:45.276Z,7.30
2017-06-14T08:47:12.794Z,6.53
2017-06-14T08:49:40.361Z,7.17
2017-06-14T08:52:07.926Z,7.30
2017-06-14T08:54:35.492Z,7.37
2017-06-14T08:57:03.049Z,6.67
2017-06-14T08:59:30.580Z,6.50
2017-06-14T09:01:58.107Z,7.77
2017-06-14T09:04:25.686Z,6.80
2017-06-14T09:06:53.281Z,7.53
2017-06-14T09:09:21.256Z,7.50
2017-06-14T09:11:48.905Z,8.27
2017-06-14T09:14:16.442Z,8.17
2017-06-14T09:16:43.990Z,8.33
2017-06-14T09:19:11.572Z,7.40
2017-06-14T09:21:39.138Z,6.93
2017-06-14T09:24:06.694Z,7.37
2017-06-14T09:26:34.259Z,7.80
2017-06-14T09:29:01.785Z,7.60
2017-06-14T09:31:29.321Z,7.17
2017-06-14T09:33:57.630Z,8.67
2017-06-14T09:36:25.164Z,7.03
2017-06-14T09:38:52.707Z,7.23
2017-06-14T09:41:20.274Z,6.67
2017-06-14T09:43:47.807Z,6.60
2017-06-14T09:46:15.362Z,6.67
2017-06-14T09:48:42.943Z,7.33
2017-06-14T09:51:11.337Z,7.70
2017-06-14T09:53:38.880Z,6.03
2017-06-14T09:56:07.249Z,6.83
2017-06-14T09:58:34.795Z,7.53
2017-06-14T10:01:02.359Z,7.60
2017-06-14T10:03:29.913Z,7.13
2017-06-14T10:05:57.518Z,6.60
2017-06-14T10:08:25.099Z,6.50
2017-06-14T10:10:52.646Z,6.67
2017-06-14T10:13:20.189Z,6.10
2017-06-14T10:15:48.523Z,6.93
2017-06-14T10:18:16.550Z,7.50
2017-06-14T10:20:44.111Z,6.83
2017-06-14T10:23:11.644Z,6.53
2017-06-14T10:25:39.976Z,6.50
2017-06-14T10:28:07.527Z,6.20
2017-06-14T10:30:35.081Z,6.77
2017-06-14T10:33:02.644Z,7.77
2017-06-14T10:35:30.631Z,6.77
2017-06-14T10:37:58.238Z,6.90
2017-06-14T10:40:26.629Z,6.20
2017-06-14T10:42:54.193Z,6.37
2017-06-14T10:45:21.718Z,6.93
2017-06-14T10:47:49.273Z,7.47
2017-06-14T10:50:16.804Z,6.70
2017-06-14T10:52:44.449Z,6.60
2017-06-14T10:55:12.110Z,6.27
2017-06-14T10:57:39.856Z,6.70
2017-06-14T11:00:07.578Z,6.20
2017-06-14T11:02:35.350Z,7.40
2017-06-14T11:05:03.946Z,7.27
2017-06-14T11:07:32.248Z,6.67
2017-06-14T11:10:00.088Z,7.30
2017-06-14T11:12:28.385Z,7.30
2017-06-14T11:14:56.091Z,7.10
2017-06-14T11:17:23.869Z,6.90
2017-06-14T11:19:51.644Z,6.60
2017-06-14T11:22:19.190Z,6.50
2017-06-14T11:24:47.146Z,6.50
2017-06-14T11:27:14.876Z,6.90
2017-06-14T11:29:42.457Z,6.60
2017-06-14T11:32:10.034Z,6.80
2017-06-14T11:34:37.697Z,7.20
2017-06-14T11:37:08.510Z,7.40
2017-06-14T11:39:36.135Z,6.83
2017-06-14T11:42:04.937Z,6.20
2017-06-14T11:44:33.178Z,7.00
2017-06-14T11:47:00.971Z,7.00
2017-06-14T11:49:28.560Z,5.90
2017-06-14T11:51:56.100Z,5.87
2017-06-14T11:54:23.627Z,6.10
2017-06-14T11:56:51.181Z,6.93
2017-06-14T11:59:18.711Z,6.83
2017-06-14T12:01:46.287Z,6.23
2017-06-14T12:04:13.845Z,5.50
2017-06-14T12:06:41.407Z,5.80
2017-06-14T12:09:08.933Z,5.83
2017-06-14T12:11:36.524Z,5.30
2017-06-14T12:14:04.075Z,5.90
2017-06-14T12:16:31.618Z,5.70
2017-06-14T12:18:59.193Z,6.30
2017-06-14T12:21:26.744Z,5.67
2017-06-14T12:23:54.325Z,5.33
2017-06-14T12:26:21.888Z,5.07
2017-06-14T12:28:50.206Z,6.13
2017-06-14T12:31:17.726Z,6.10
2017-06-14T12:33:45.582Z,5.80
2017-06-14T12:36:13.201Z,5.20
2017-06-14T12:38:40.771Z,4.30
2017-06-14T12:41:08.361Z,4.00
2017-06-14T12:43:35.911Z,4.30
2017-06-14T12:46:03.482Z,4.77
2017-06-14T12:48:31.069Z,5.27
2017-06-14T12:50:58.634Z,4.47
2017-06-14T12:53:26.163Z,4.20
2017-06-14T12:55:53.711Z,4.60
2017-06-14T12:58:21.274Z,5.30
2017-06-14T13:00:48.860Z,5.50
2017-06-14T13:03:16.702Z,4.30
2017-06-14T13:05:44.423Z,5.00
2017-06-14T13:08:11.982Z,4.67
2017-06-14T13:10:39.539Z,5.10
2017-06-14T13:13:07.074Z,4.53
2017-06-14T13:15:35.394Z,5.50
2017-06-14T13:18:02.959Z,4.80
2017-06-14T13:20:30.513Z,5.20
2017-06-14T13:22:58.050Z,4.63
2017-06-14T13:25:25.606Z,4.37
2017-06-14T13:27:53.140Z,4.23
2017-06-14T13:30:20.697Z,4.50
2017-06-14T13:32:48.274Z,4.50
2017-06-14T13:35:15.799Z,4.53
2017-06-14T13:37:43.360Z,4.33
2017-06-14T13:40:11.350Z,5.20
2017-06-14T13:42:39.639Z,4.07
2017-06-14T13:45:07.167Z,4.23
2017-06-14T13:47:34.724Z,4.27
2017-06-14T13:50:02.269Z,3.93
2017-06-14T13:52:29.807Z,3.83
2017-06-14T13:54:57.657Z,4.20
2017-06-14T13:57:25.222Z,4.27
2017-06-14T13:59:52.766Z,4.50
2017-06-14T14:02:20.321Z,3.60
2017-06-14T14:04:47.874Z,3.60
2017-06-14T14:07:15.443Z,3.97
2017-06-14T14:09:43.245Z,3.70
2017-06-14T14:12:11.577Z,3.30
2017-06-14T14:14:39.125Z,3.67
2017-06-14T14:17:06.701Z,4.03
2017-06-14T14:19:34.234Z,3.93
2017-06-14T14:22:01.802Z,4.10
2017-06-14T14:24:29.390Z,4.70
2017-06-14T14:26:56.929Z,4.57
2017-06-14T14:29:24.488Z,4.00
2017-06-14T14:31:52.083Z,5.17
2017-06-14T14:34:19.625Z,4.30
2017-06-14T14:36:47.187Z,4.73
2017-06-14T14:39:14.762Z,4.23
2017-06-14T14:41:42.311Z,4.93
2017-06-14T14:44:09.849Z,5.03
2017-06-14T14:46:37.454Z,4.50
2017-06-14T14:49:05.011Z,4.30
2017-06-14T14:51:32.563Z,4.77
2017-06-14T14:54:00.126Z,4.10
2017-06-14T14:56:27.704Z,4.50
2017-06-14T14:58:55.253Z,4.10
2017-06-14T15:01:22.866Z,4.50
2017-06-14T15:03:50.425Z,4.20
2017-06-14T15:06:17.964Z,3.83
2017-06-14T15:08:45.543Z,4.30
2017-06-14T15:11:13.084Z,4.57
2017-06-14T15:13:40.640Z,4.13
2017-06-14T15:16:08.981Z,4.10
2017-06-14T15:18:36.583Z,4.80
2017-06-14T15:21:04.918Z,3.80
2017-06-14T15:23:32.480Z,4.70
2017-06-14T15:26:00.040Z,4.47
2017-06-14T15:28:27.604Z,4.50
2017-06-14T15:30:55.550Z,4.03
2017-06-14T15:33:23.082Z,3.93
2017-06-14T15:35:50.634Z,4.10
2017-06-14T15:38:18.192Z,4.60
2017-06-14T15:40:45.709Z,4.80
2017-06-14T15:43:13.265Z,4.07
2017-06-14T15:45:40.855Z,4.27
2017-06-14T15:48:08.377Z,4.20
2017-06-14T15:50:35.897Z,4.10
2017-06-14T15:53:03.444Z,3.87
2017-06-14T15:55:30.990Z,4.30
2017-06-14T15:57:58.529Z,4.23
2017-06-14T16:00:26.101Z,4.10
2017-06-14T16:02:53.637Z,4.40
2017-06-14T16:05:21.167Z,4.67
2017-06-14T16:07:48.734Z,4.33
2017-06-14T16:10:16.267Z,5.13
2017-06-14T16:12:43.801Z,4.57
2017-06-14T16:15:11.381Z,5.43
2017-06-14T16:17:38.920Z,4.70
2017-06-14T16:20:06.477Z,4.67
2017-06-14T16:22:34.022Z,4.30
2017-06-14T16:25:01.557Z,4.37
2017-06-14T16:27:29.091Z,4.23
2017-06-14T16:29:56.660Z,4.10
2017-06-14T16:32:24.195Z,4.40
2017-06-14T16:34:51.713Z,4.00
2017-06-14T16:37:19.368Z,4.97
2017-06-14T16:39:46.957Z,4.63
2017-06-14T16:42:14.509Z,4.47
2017-06-14T16:44:42.070Z,4.00
2017-06-14T16:47:09.621Z,4.80
2017-06-14T16:49:37.197Z,4.33
2017-06-14T16:52:04.803Z,4.73
2017-06-14T16:54:32.337Z,4.50
2017-06-14T16:56:59.895Z,4.10
2017-06-14T16:59:27.487Z,4.00
2017-06-14T17:01:55.048Z,4.13
2017-06-14T17:04:22.607Z,4.00
2017-06-14T17:06:50.174Z,4.00
2017-06-14T17:09:17.733Z,4.83
2017-06-14T17:11:45.286Z,4.47
2017-06-14T17:14:12.865Z,4.13
2017-06-14T17:16:40.404Z,4.07
2017-06-14T17:19:07.956Z,4.30
2017-06-14T17:21:35.794Z,4.67
2017-06-14T17:24:04.905Z,4.50
2017-06-14T17:26:32.457Z,3.93
2017-06-14T17:29:00.059Z,4.40
2017-06-14T17:31:27.594Z,4.30
2017-06-14T17:33:55.134Z,4.27
2017-06-14T17:36:22.713Z,4.70
2017-06-14T17:38:50.250Z,4.57
2017-06-14T17:41:17.787Z,4.40
2017-06-14T17:43:46.122Z,4.33
2017-06-14T17:46:13.673Z,4.87
2017-06-14T17:48:41.233Z,4.83
2017-06-14T17:51:08.828Z,4.40
2017-06-14T17:53:36.366Z,4.67
2017-06-14T17:56:03.927Z,5.40
2017-06-14T17:58:31.851Z,4.20
2017-06-14T18:00:59.401Z,4.50
2017-06-14T18:03:26.971Z,4.33
2017-06-14T18:05:54.530Z,4.13
2017-06-14T18:08:22.135Z,4.67
2017-06-14T18:10:49.688Z,4.67
2017-06-14T18:13:17.262Z,4.67
2017-06-14T18:15:44.799Z,5.67
2017-06-14T18:18:12.342Z,5.27
2017-06-14T18:20:39.951Z,6.00
2017-06-14T18:23:07.532Z,5.10
2017-06-14T18:25:35.110Z,5.43
2017-06-14T18:28:02.663Z,5.50
2017-06-14T18:30:30.206Z,5.53
2017-06-14T18:32:58.543Z,5.37
2017-06-14T18:35:26.362Z,5.77
2017-06-14T18:37:53.909Z,5.10
2017-06-14T18:40:21.443Z,5.13
2017-06-14T18:42:49.001Z,5.40
2017-06-14T18:45:16.543Z,5.63
2017-06-14T18:47:44.094Z,6.07
2017-06-14T18:50:11.667Z,5.43
2017-06-14T18:52:39.203Z,5.47
2017-06-14T18:55:06.748Z,5.50
2017-06-14T18:57:34.329Z,5.97
2017-06-14T19:00:01.872Z,5.73
2017-06-14T19:02:29.431Z,5.50
2017-06-14T19:04:57.003Z,5.67
2017-06-14T19:07:24.606Z,5.10
2017-06-14T19:09:52.211Z,5.50
2017-06-14T19:12:19.986Z,5.70
2017-06-14T19:14:48.112Z,5.60
2017-06-14T19:17:16.897Z,5.77
2017-06-14T19:19:44.965Z,6.20
2017-06-14T19:22:12.514Z,5.67
2017-06-14T19:24:40.095Z,5.20
2017-06-14T19:27:07.962Z,6.00
2017-06-14T19:29:35.552Z,5.70
2017-06-14T19:32:03.095Z,5.60
2017-06-14T19:34:30.695Z,5.63
2017-06-14T19:36:58.237Z,6.07
2017-06-14T19:39:25.862Z,5.80
2017-06-14T19:41:53.460Z,6.00
2017-06-14T19:44:21.154Z,6.20
2017-06-14T19:46:48.781Z,6.00
2017-06-14T19:49:16.347Z,7.40
2017-06-14T19:51:43.903Z,7.57
2017-06-14T19:54:11.443Z,7.20
2017-06-14T19:56:39.012Z,7.23
2017-06-14T19:59:06.549Z,7.30
2017-06-14T20:01:34.077Z,7.00
2017-06-14T20:04:01.650Z,7.67
2017-06-14T20:06:29.184Z,7.50
2017-06-14T20:08:56.712Z,7.10
2017-06-14T20:11:24.284Z,7.43
2017-06-14T20:13:51.809Z,8.00
2017-06-14T20:16:19.393Z,7.80
2017-06-14T20:18:46.984Z,8.50
2017-06-14T20:21:14.540Z,7.63
2017-06-14T20:23:42.074Z,8.00
2017-06-14T20:26:09.657Z,8.00
2017-06-14T20:28:37.219Z,8.50
2017-06-14T20:31:04.763Z,8.10
2017-06-14T20:33:32.365Z,8.50
2017-06-14T20:35:59.953Z,8.83
2017-06-14T20:38:27.509Z,8.87
2017-06-14T20:40:55.073Z,8.30
2017-06-14T20:43:22.632Z,8.80
2017-06-14T20:45:50.202Z,8.67
2017-06-14T20:48:17.774Z,8.40
2017-06-14T20:50:45.317Z,8.87
2017-06-14T20:53:12.864Z,9.00
2017-06-14T20:55:40.433Z,8.93
2017-06-14T20:58:07.968Z,9.30
2017-06-14T21:00:35.505Z,8.67
2017-06-14T21:03:03.078Z,9.77
2017-06-14T21:05:30.614Z,9.40
2017-06-14T21:07:58.179Z,10.83
2017-06-14T21:10:25.750Z,10.63
2017-06-14T21:12:54.066Z,11.90
2017-06-14T21:15:21.622Z,9.63
2017-06-14T21:17:49.202Z,11.00
2017-06-14T21:20:16.747Z,10.90
2017-06-14T21:22:44.291Z,10.57
2017-06-14T21:25:11.892Z,10.10
2017-06-14T21:27:39.454Z,9.97
2017-06-14T21:30:07.028Z,9.30
2017-06-14T21:32:35.715Z,9.53
2017-06-14T21:35:03.367Z,10.70
2017-06-14T21:37:30.922Z,10.30
2017-06-14T21:39:58.493Z,10.80
2017-06-14T21:42:27.288Z,11.27
2017-06-14T21:44:57.643Z,10.27
2017-06-14T21:47:25.255Z,10.53
2017-06-14T21:49:52.799Z,11.50
2017-06-14T21:52:20.342Z,10.50
2017-06-14T21:54:47.950Z,10.60
2017-06-14T21:57:20.981Z,11.67
2017-06-14T21:59:48.563Z,11.33
2017-06-14T22:02:16.102Z,10.97
2017-06-14T22:04:43.658Z,10.90
2017-06-14T22:07:12.768Z,12.20
2017-06-14T22:09:40.310Z,11.30
2017-06-14T22:12:07.844Z,11.90
2017-06-14T22:14:36.170Z,9.80
2017-06-14T22:17:03.696Z,11.93
2017-06-14T22:19:31.232Z,11.57
2017-06-14T22:21:58.784Z,10.93
2017-06-14T22:24:26.321Z,11.27
2017-06-14T22:26:53.863Z,11.60
2017-06-14T22:29:21.452Z,11.63
2017-06-14T22:31:49.005Z,13.23
2017-06-14T22:34:16.539Z,11.83
2017-06-14T22:36:44.130Z,11.07
2017-06-14T22:39:11.658Z,10.77
2017-06-14T22:41:39.197Z,10.77
2017-06-14T22:44:06.752Z,10.30
2017-06-14T22:46:34.295Z,11.73
2017-06-14T22:49:02.116Z,11.20
2017-06-14T22:51:29.706Z,12.20
2017-06-14T22:53:57.238Z,12.53
2017-06-14T22:56:24.792Z,11.33
2017-06-14T22:58:52.662Z,12.20
2017-06-14T23:01:20.202Z,12.33
2017-06-14T23:03:47.742Z,11.60
2017-06-14T23:06:15.406Z,12.07
2017-06-14T23:08:42.958Z,11.27
2017-06-14T23:11:10.501Z,11.57
2017-06-14T23:13:38.830Z,10.80
2017-06-14T23:16:06.390Z,11.37
2017-06-14T23:18:36.157Z,11.97
2017-06-14T23:21:04.051Z,12.83
2017-06-14T23:23:32.768Z,11.83
2017-06-14T23:26:00.336Z,12.40
2017-06-14T23:28:27.898Z,12.40
2017-06-14T23:30:55.450Z,11.60
2017-06-14T23:33:22.978Z,12.27
2017-06-14T23:35:50.536Z,12.80
2017-06-14T23:38:18.074Z,13.00
2017-06-14T23:40:45.611Z,13.10
2017-06-14T23:43:13.194Z,12.60
2017-06-14T23:45:40.735Z,12.80
2017-06-14T23:48:08.273Z,13.30
2017-06-14T23:50:35.839Z,12.60
2017-06-14T23:53:03.381Z,12.17
2017-06-14T23:55:30.925Z,13.20
2017-06-14T23:57:58.501Z,13.80
